Time;durP1;ratioP1;P1;durP2;ratioP2;P2;SDS_P1;SDS_P2;PMS_P1;PMS_P2;Temp;Humidity;BMP_temperature;BMP_pressure;BME280_temperature;BME280_humidity;BME280_pressure;Samples;Min_cycle;Max_cycle;Signal;HPM_P1;HPM_P2
2022/04/16 00:00:27;;;;;;;0.50;0.50;;;;;;;8.79;66.75;97810.31;29394;206;64004;-59
2022/04/16 00:00:59;;;;;;;0.50;0.50;;;;;;;8.81;66.39;97813.59;29395;247;63009;-58
2022/04/16 00:01:31;;;;;;;0.50;0.50;;;;;;;8.81;66.35;97810.88;29395;239;63004;-58
2022/04/16 00:02:03;;;;;;;0.50;0.50;;;;;;;8.80;66.81;97811.97;29395;261;63009;-58
2022/04/16 00:02:34;;;;;;;0.50;0.50;;;;;;;8.80;66.67;97817.38;29395;212;63004;-63
2022/04/16 00:03:07;;;;;;;0.50;0.50;;;;;;;8.79;66.89;97804.91;29395;314;63008;-58
2022/04/16 00:03:39;;;;;;;0.50;0.50;;;;;;;8.77;66.68;97815.19;29395;202;63004;-59
2022/04/16 00:04:10;;;;;;;0.50;0.50;;;;;;;8.76;66.97;97816.25;29395;209;63009;-59
2022/04/16 00:04:42;;;;;;;0.50;0.50;;;;;;;8.74;67.28;97818.41;29394;241;64005;-58
2022/04/16 00:05:15;;;;;;;0.50;0.50;;;;;;;8.73;67.29;97809.47;29395;215;63009;-58
2022/04/16 00:05:46;;;;;;;0.50;0.50;;;;;;;8.71;67.59;97817.03;29395;205;63014;-57
2022/04/16 00:06:18;;;;;;;0.50;0.50;;;;;;;8.71;67.70;97814.31;29395;197;63009;-59
2022/04/16 00:06:49;;;;;;;0.50;0.50;;;;;;;8.69;67.20;97827.28;29395;223;63005;-58
2022/04/16 00:07:20;;;;;;;0.50;0.50;;;;;;;8.70;66.90;97822.69;29395;202;63009;-63
2022/04/16 00:08:07;;;;;;;0.50;0.50;;;;;;;8.72;67.10;97821.34;29395;269;63005;-58
2022/04/16 00:08:38;;;;;;;0.50;0.50;;;;;;;8.69;66.35;97821.87;29395;211;63009;-58
2022/04/16 00:09:09;;;;;;;0.50;0.50;;;;;;;8.69;66.34;97830.00;29395;207;63004;-58
2022/04/16 00:09:42;;;;;;;0.50;0.50;;;;;;;8.69;66.55;97821.87;29395;274;63009;-58
2022/04/16 00:10:13;;;;;;;0.50;0.50;;;;;;;8.69;66.90;97824.56;29394;204;64004;-57
2022/04/16 00:10:46;;;;;;;0.50;0.50;;;;;;;8.67;66.82;97824.03;29395;288;63008;-58
2022/04/16 00:11:18;;;;;;;0.73;0.73;;;;;;;8.66;66.62;97827.78;29395;261;63005;-64
2022/04/16 00:11:49;;;;;;;0.50;0.50;;;;;;;8.64;66.30;97823.75;29395;208;63009;-58
2022/04/16 00:12:21;;;;;;;0.50;0.50;;;;;;;8.62;66.32;97823.19;29394;293;64005;-66
2022/04/16 00:12:53;;;;;;;0.50;0.50;;;;;;;8.61;67.22;97825.06;29395;214;63009;-58
2022/04/16 00:13:25;;;;;;;0.50;0.50;;;;;;;8.59;66.98;97824.50;29395;318;63005;-64
2022/04/16 00:13:56;;;;;;;0.50;0.50;;;;;;;8.58;66.83;97830.19;29395;280;63009;-63
2022/04/16 00:14:27;;;;;;;0.50;0.50;;;;;;;8.58;66.89;97825.59;29394;218;63995;-58
2022/04/16 00:14:58;;;;;;;0.50;0.50;;;;;;;8.57;66.39;97826.66;29395;211;63009;-58
2022/04/16 00:15:31;;;;;;;0.50;0.50;;;;;;;8.56;66.53;97822.31;29394;238;64004;-59
2022/04/16 00:16:03;;;;;;;0.50;0.50;;;;;;;8.55;66.56;97819.88;29395;214;63009;-64
2022/04/16 00:16:34;;;;;;;0.50;0.50;;;;;;;8.55;66.75;97823.38;29395;293;63004;-58
2022/04/16 00:17:06;;;;;;;0.50;0.50;;;;;;;8.54;66.99;97827.16;29395;255;63009;-58
2022/04/16 00:17:38;;;;;;;0.50;0.50;;;;;;;8.54;67.48;97824.47;29394;262;64004;-59
2022/04/16 00:18:09;;;;;;;0.50;0.50;;;;;;;8.50;67.17;97820.63;29395;246;63008;-63
2022/04/16 00:18:40;;;;;;;0.50;0.50;;;;;;;8.50;66.86;97822.53;29395;218;63004;-58
2022/04/16 00:19:12;;;;;;;0.50;0.50;;;;;;;8.50;66.99;97814.41;29395;222;63009;-64
2022/04/16 00:19:43;;;;;;;0.50;0.50;;;;;;;8.50;67.21;97822.53;29394;220;64005;-63
2022/04/16 00:20:18;;;;;;;0.50;0.50;;;;;;;8.48;67.16;97817.38;29395;227;63009;-60
2022/04/16 00:20:49;;;;;;;0.50;0.50;;;;;;;8.48;67.27;97820.06;29395;231;63005;-58
2022/04/16 00:21:22;;;;;;;0.50;0.50;;;;;;;8.49;67.11;97821.72;29395;197;63009;-60
2022/04/16 00:21:57;;;;;;;0.60;0.60;;;;;;;8.51;66.84;97819.56;29395;229;63005;-58
2022/04/16 00:22:28;;;;;;;0.50;0.50;;;;;;;8.53;66.33;97817.41;29394;263;64009;-61
2022/04/16 00:23:00;;;;;;;0.50;0.50;;;;;;;8.55;66.00;97817.97;29395;273;63004;-63
2022/04/16 00:23:31;;;;;;;0.50;0.50;;;;;;;8.56;66.11;97816.91;29395;214;63009;-58
2022/04/16 00:24:07;;;;;;;0.50;0.50;;;;;;;8.56;66.33;97816.91;29394;211;64004;-57
2022/04/16 00:24:40;;;;;;;0.60;0.60;;;;;;;8.56;66.23;97811.50;29395;240;63009;-57
2022/04/16 00:25:13;;;;;;;0.50;0.50;;;;;;;8.55;65.97;97820.69;29395;222;63004;-62
2022/04/16 00:25:45;;;;;;;0.55;0.55;;;;;;;8.54;66.29;97816.34;29394;218;64008;-57
2022/04/16 00:26:16;;;;;;;0.50;0.50;;;;;;;8.54;66.14;97818.25;29395;275;63004;-58
2022/04/16 00:26:50;;;;;;;0.50;0.50;;;;;;;8.53;66.63;97811.19;29395;197;63009;-64
2022/04/16 00:27:21;;;;;;;0.50;0.50;;;;;;;8.52;66.51;97810.38;29395;204;63005;-58
2022/04/16 00:27:54;;;;;;;0.50;0.50;;;;;;;8.50;66.90;97817.94;29395;223;63009;-58
2022/04/16 00:28:27;;;;;;;0.50;0.50;;;;;;;8.48;67.05;97809.25;29395;203;63005;-58
2022/04/16 00:28:59;;;;;;;0.50;0.50;;;;;;;8.46;66.82;97814.09;29395;216;63009;-58
2022/04/16 00:29:31;;;;;;;0.50;0.50;;;;;;;8.44;66.98;97813.53;29395;218;63005;-65
2022/04/16 00:30:04;;;;;;;0.50;0.50;;;;;;;8.42;67.37;97814.88;29395;246;63009;-65
2022/04/16 00:30:40;;;;;;;0.50;0.50;;;;;;;8.40;67.24;97815.13;29395;287;63004;-60
2022/04/16 00:31:13;;;;;;;0.50;0.50;;;;;;;8.40;67.19;97812.41;29394;238;64009;-61
2022/04/16 00:31:45;;;;;;;0.50;0.50;;;;;;;8.42;66.30;97812.16;29395;278;63004;-63
2022/04/16 00:32:19;;;;;;;0.52;0.52;;;;;;;8.43;66.10;97817.31;29395;277;63009;-58
2022/04/16 00:32:55;;;;;;;0.60;0.60;;;;;;;8.44;66.14;97813.53;29394;292;64004;-58
2022/04/16 00:33:26;;;;;;;0.50;0.50;;;;;;;8.44;66.56;97818.12;29395;204;63008;-57
2022/04/16 00:33:57;;;;;;;0.60;0.60;;;;;;;8.43;66.24;97821.91;29395;257;63005;-59
2022/04/16 00:34:28;;;;;;;0.50;0.50;;;;;;;8.42;66.06;97810.28;29395;198;63016;-58
2022/04/16 00:35:02;;;;;;;0.50;0.50;;;;;;;8.42;65.95;97810.28;29395;211;63005;-59
2022/04/16 00:35:34;;;;;;;0.57;0.57;;;;;;;8.43;66.01;97817.31;29395;248;63009;-64
2022/04/16 00:36:06;;;;;;;0.50;0.50;;;;;;;8.45;66.11;97809.75;29395;253;63012;-58
2022/04/16 00:36:37;;;;;;;0.50;0.50;;;;;;;8.46;66.12;97810.59;29395;249;63009;-60
2022/04/16 00:37:08;;;;;;;0.50;0.50;;;;;;;8.45;66.55;97815.19;29394;199;64005;-58
2022/04/16 00:37:40;;;;;;;0.60;0.60;;;;;;;8.46;66.26;97819.50;29396;252;63009;-61
2022/04/16 00:38:11;;;;;;;0.50;0.50;;;;;;;8.45;65.87;97809.75;29396;199;63004;-58
2022/04/16 00:38:42;;;;;;;0.50;0.50;;;;;;;8.45;65.67;97819.78;29396;238;63009;-58
2022/04/16 00:39:14;;;;;;;0.50;0.50;;;;;;;8.47;65.51;97814.91;29396;203;63004;-64
2022/04/16 00:39:45;;;;;;;0.50;0.50;;;;;;;8.46;65.60;97811.41;29396;213;63009;-63
2022/04/16 00:40:16;;;;;;;0.50;0.50;;;;;;;8.47;65.60;97806.81;29396;226;63004;-58
2022/04/16 00:40:47;;;;;;;0.50;0.50;;;;;;;8.46;65.72;97806.00;29396;228;63008;-58
2022/04/16 00:41:18;;;;;;;0.60;0.60;;;;;;;8.45;66.45;97812.47;29396;202;63004;-64
2022/04/16 00:41:50;;;;;;;0.50;0.50;;;;;;;8.44;66.08;97808.13;29396;223;63009;-58
2022/04/16 00:42:21;;;;;;;0.50;0.50;;;;;;;8.43;66.20;97811.09;29395;213;64005;-58
2022/04/16 00:42:53;;;;;;;0.50;0.50;;;;;;;8.42;66.19;97804.88;29396;256;63009;-59
2022/04/16 00:43:27;;;;;;;0.50;0.50;;;;;;;8.39;66.40;97808.09;29396;240;63005;-59
2022/04/16 00:43:58;;;;;;;0.70;0.70;;;;;;;8.36;66.42;97805.87;29396;203;63009;-58
2022/04/16 00:44:29;;;;;;;0.50;0.50;;;;;;;8.38;66.43;97809.16;29396;283;63010;-58
2022/04/16 00:45:00;;;;;;;0.50;0.50;;;;;;;8.38;66.36;97809.97;29396;289;63009;-63
2022/04/16 00:45:32;;;;;;;0.50;0.50;;;;;;;8.36;66.18;97811.28;29396;221;63005;-58
2022/04/16 00:46:04;;;;;;;0.50;0.50;;;;;;;8.34;66.05;97808.03;29396;203;63009;-64
2022/04/16 00:46:38;;;;;;;0.50;0.50;;;;;;;8.35;65.49;97809.66;29396;202;63004;-59
2022/04/16 00:47:09;;;;;;;0.50;0.50;;;;;;;8.32;65.77;97811.00;29395;199;64021;-62
2022/04/16 00:47:41;;;;;;;0.50;0.50;;;;;;;8.34;65.96;97814.25;29396;253;63009;-65
2022/04/16 00:48:12;;;;;;;0.50;0.50;;;;;;;8.34;66.15;97814.25;29396;210;63008;-58
2022/04/16 00:48:44;;;;;;;0.50;0.50;;;;;;;8.34;65.87;97816.13;29396;198;63004;-58
2022/04/16 00:49:16;;;;;;;0.50;0.50;;;;;;;8.32;65.70;97815.53;29396;200;63009;-63
2022/04/16 00:49:47;;;;;;;0.50;0.50;;;;;;;8.31;65.65;97812.06;29396;214;63005;-64
2022/04/16 00:50:19;;;;;;;0.50;0.50;;;;;;;8.34;66.02;97813.44;29396;255;63009;-58
2022/04/16 00:50:52;;;;;;;0.50;0.50;;;;;;;8.33;66.29;97814.50;29396;213;63005;-64
2022/04/16 00:51:24;;;;;;;0.50;0.50;;;;;;;8.31;66.01;97819.34;29395;254;64009;-58
2022/04/16 00:51:56;;;;;;;0.50;0.50;;;;;;;8.25;65.96;97807.66;29395;199;64016;-65
2022/04/16 00:52:28;;;;;;;0.50;0.50;;;;;;;8.23;66.38;97817.09;29396;200;63009;-58
2022/04/16 00:53:00;;;;;;;0.50;0.50;;;;;;;8.23;66.11;97814.41;29396;221;63004;-58
2022/04/16 00:53:31;;;;;;;0.50;0.50;;;;;;;8.19;66.79;97815.97;29396;225;63009;-64
2022/04/16 00:54:03;;;;;;;0.50;0.50;;;;;;;8.15;66.73;97821.06;29396;245;63004;-65
2022/04/16 00:54:35;;;;;;;0.50;0.50;;;;;;;8.16;66.69;97821.87;29396;238;63009;-64
2022/04/16 00:55:08;;;;;;;0.50;0.50;;;;;;;8.16;66.35;97814.59;29396;227;63004;-58
2022/04/16 00:55:39;;;;;;;0.50;0.50;;;;;;;8.23;65.19;97811.69;29396;206;63008;-58
2022/04/16 00:56:15;;;;;;;0.50;0.50;;;;;;;8.29;64.53;97811.50;29396;216;63004;-64
2022/04/16 00:56:47;;;;;;;0.50;0.50;;;;;;;8.31;64.81;97808.53;29396;222;63009;-58
2022/04/16 00:57:19;;;;;;;0.50;0.50;;;;;;;8.31;64.76;97806.66;29395;202;64005;-63
2022/04/16 00:57:52;;;;;;;0.60;0.60;;;;;;;8.32;65.11;97805.59;29396;244;63009;-57
2022/04/16 00:58:23;;;;;;;0.50;0.50;;;;;;;8.32;64.91;97804.72;29396;291;63005;-59
2022/04/16 00:58:54;;;;;;;0.50;0.50;;;;;;;8.31;65.13;97813.94;29396;214;63009;-65
2022/04/16 00:59:25;;;;;;;0.50;0.50;;;;;;;8.29;65.78;97814.19;29396;259;63005;-57
2022/04/16 00:59:57;;;;;;;0.50;0.50;;;;;;;8.27;66.50;97807.41;29396;287;63009;-63
2022/04/16 01:00:28;;;;;;;0.50;0.50;;;;;;;8.25;65.97;97809.56;29396;202;63004;-58
2022/04/16 01:00:59;;;;;;;0.50;0.50;;;;;;;8.26;66.15;97812.00;29396;244;63028;-58
2022/04/16 01:01:31;;;;;;;0.50;0.50;;;;;;;8.27;65.76;97808.22;29396;249;63004;-58
2022/04/16 01:02:03;;;;;;;0.50;0.50;;;;;;;8.29;65.58;97816.91;29396;199;63009;-58
2022/04/16 01:02:37;;;;;;;0.50;0.50;;;;;;;8.29;64.79;97805.28;29395;258;64004;-61
2022/04/16 01:03:09;;;;;;;0.55;0.55;;;;;;;8.36;64.57;97805.87;29396;203;63008;-58
2022/04/16 01:03:43;;;;;;;0.50;0.50;;;;;;;8.37;64.02;97804.81;29395;229;64005;-57
2022/04/16 01:04:14;;;;;;;0.50;0.50;;;;;;;8.37;64.42;97804.81;29395;198;64009;-64
2022/04/16 01:04:46;;;;;;;0.50;0.50;;;;;;;8.36;63.89;97808.59;29396;207;63005;-57
2022/04/16 01:05:19;;;;;;;0.50;0.50;;;;;;;8.28;64.10;97801.75;29396;262;63009;-57
2022/04/16 01:05:51;;;;;;;0.50;0.50;;;;;;;8.31;64.03;97803.94;29396;243;63005;-58
2022/04/16 01:06:22;;;;;;;0.50;0.50;;;;;;;8.29;64.22;97805.28;29396;196;63009;-65
2022/04/16 01:06:53;;;;;;;0.50;0.50;;;;;;;8.29;63.99;97805.28;29396;231;63005;-58
2022/04/16 01:07:26;;;;;;;0.50;0.50;;;;;;;8.26;64.99;97808.47;29396;206;63009;-60
2022/04/16 01:07:59;;;;;;;0.55;0.55;;;;;;;8.25;64.88;97809.56;29396;202;63004;-64
2022/04/16 01:08:31;;;;;;;0.55;0.55;;;;;;;8.27;64.80;97813.63;29396;197;63009;-58
2022/04/16 01:09:03;;;;;;;0.60;0.60;;;;;;;8.27;64.67;97807.41;29395;230;64004;-65
2022/04/16 01:09:35;;;;;;;0.50;0.50;;;;;;;8.27;64.99;97812.81;29396;202;63009;-64
2022/04/16 01:10:07;;;;;;;0.50;0.50;;;;;;;8.25;65.24;97820.38;29396;247;63004;-64
2022/04/16 01:10:38;;;;;;;0.50;0.50;;;;;;;8.24;64.93;97807.91;29396;275;63008;-67
2022/04/16 01:11:09;;;;;;;0.50;0.50;;;;;;;8.26;64.97;97811.19;29396;210;63018;-66
2022/04/16 01:11:41;;;;;;;0.60;0.60;;;;;;;8.27;64.92;97807.41;29396;214;63009;-58
2022/04/16 01:12:13;;;;;;;0.50;0.50;;;;;;;8.28;64.62;97809.06;29396;282;63005;-59
2022/04/16 01:12:45;;;;;;;0.50;0.50;;;;;;;8.28;64.57;97799.06;29396;198;63009;-59
2022/04/16 01:13:18;;;;;;;0.50;0.50;;;;;;;8.31;64.41;97805.84;29396;219;63005;-66
2022/04/16 01:13:49;;;;;;;0.50;0.50;;;;;;;8.32;64.36;97804.72;29395;198;64009;-58
2022/04/16 01:14:25;;;;;;;0.50;0.50;;;;;;;8.32;64.43;97811.00;29396;207;63005;-58
2022/04/16 01:14:57;;;;;;;0.50;0.50;;;;;;;8.30;64.48;97802.31;29396;214;63009;-58
2022/04/16 01:15:31;;;;;;;0.50;0.50;;;;;;;8.30;64.42;97806.91;29396;205;63004;-58
2022/04/16 01:16:04;;;;;;;0.50;0.50;;;;;;;8.29;64.73;97799.88;29396;218;63009;-58
2022/04/16 01:16:35;;;;;;;0.50;0.50;;;;;;;8.30;64.66;97809.59;29396;303;63004;-58
2022/04/16 01:17:06;;;;;;;0.50;0.50;;;;;;;8.31;64.73;97803.94;29396;197;63009;-57
2022/04/16 01:17:38;;;;;;;0.50;0.50;;;;;;;8.30;64.98;97801.50;29396;218;63004;-58
2022/04/16 01:18:12;;;;;;;0.50;0.50;;;;;;;8.29;64.39;97799.88;29396;196;63008;-65
2022/04/16 01:18:47;;;;;;;0.50;0.50;;;;;;;8.27;64.41;97802.00;29396;202;63005;-59
2022/04/16 01:19:21;;;;;;;0.60;0.60;;;;;;;8.28;64.74;97801.75;29395;219;64009;-65
2022/04/16 01:19:52;;;;;;;0.60;0.60;;;;;;;8.28;65.16;97800.94;29395;285;64005;-58
2022/04/16 01:20:24;;;;;;;0.50;0.50;;;;;;;8.28;65.20;97798.22;29396;291;63009;-62
2022/04/16 01:20:56;;;;;;;0.50;0.50;;;;;;;8.28;65.03;97804.47;29396;226;63005;-60
2022/04/16 01:21:31;;;;;;;0.50;0.50;;;;;;;8.29;64.42;97805.28;29397;252;63009;-57
2022/04/16 01:22:05;;;;;;;0.50;0.50;;;;;;;8.27;64.34;97800.13;29397;227;63005;-64
2022/04/16 01:22:36;;;;;;;0.85;0.85;;;;;;;8.27;64.47;97802.00;29397;227;63009;-57
2022/04/16 01:23:08;;;;;;;0.50;0.50;;;;;;;8.28;64.45;97806.34;29397;236;63004;-58
2022/04/16 01:23:39;;;;;;;0.50;0.50;;;;;;;8.28;64.45;97809.06;29397;202;63009;-59
2022/04/16 01:24:11;;;;;;;0.50;0.50;;;;;;;8.27;64.60;97807.41;29397;204;63004;-64
2022/04/16 01:24:48;;;;;;;0.50;0.50;;;;;;;8.27;64.44;97804.72;29397;249;63009;-64
2022/04/16 01:25:19;;;;;;;0.50;0.50;;;;;;;8.26;64.50;97805.78;29396;235;64004;-58
2022/04/16 01:25:51;;;;;;;0.50;0.50;;;;;;;8.26;64.81;97801.19;29397;243;63008;-58
2022/04/16 01:26:22;;;;;;;0.55;0.55;;;;;;;8.27;64.70;97800.13;29397;206;63005;-58
2022/04/16 01:26:53;;;;;;;0.50;0.50;;;;;;;8.28;64.45;97798.22;29397;205;63009;-59
2022/04/16 01:27:24;;;;;;;0.50;0.50;;;;;;;8.26;64.60;97806.59;29397;230;63005;-57
2022/04/16 01:27:57;;;;;;;0.50;0.50;;;;;;;8.26;64.64;97801.19;29397;220;63009;-57
2022/04/16 01:28:28;;;;;;;0.50;0.50;;;;;;;8.27;64.46;97802.81;29397;198;63005;-58
2022/04/16 01:28:59;;;;;;;0.50;0.50;;;;;;;8.27;64.27;97808.22;29397;203;63009;-58
2022/04/16 01:29:30;;;;;;;0.60;0.60;;;;;;;8.27;64.55;97799.31;29397;196;63009;-66
2022/04/16 01:30:03;;;;;;;0.52;0.52;;;;;;;8.27;64.82;97807.41;29396;216;64009;-57
2022/04/16 01:30:35;;;;;;;0.50;0.50;;;;;;;8.29;64.61;97797.97;29397;202;63004;-57
2022/04/16 01:31:07;;;;;;;0.50;0.50;;;;;;;8.29;64.83;97807.97;29397;210;63009;-59
2022/04/16 01:31:38;;;;;;;0.60;0.60;;;;;;;8.28;64.66;97800.94;29397;220;63004;-58
2022/04/16 01:32:10;;;;;;;0.50;0.50;;;;;;;8.28;65.21;97800.94;29397;230;63009;-63
2022/04/16 01:32:41;;;;;;;0.50;0.50;;;;;;;8.30;64.95;97798.78;29397;247;63009;-65
2022/04/16 01:33:12;;;;;;;0.50;0.50;;;;;;;8.29;65.03;97799.88;29397;328;63008;-58
2022/04/16 01:33:43;;;;;;;0.50;0.50;;;;;;;8.27;65.22;97804.72;29397;206;63005;-59
2022/04/16 01:34:17;;;;;;;0.57;0.57;;;;;;;8.27;64.94;97797.41;29396;257;63009;-64
2022/04/16 01:34:48;;;;;;;0.50;0.50;;;;;;;8.26;65.38;97794.97;29395;240;64005;-57
2022/04/16 01:35:19;;;;;;;0.50;0.50;;;;;;;8.26;65.55;97803.06;29397;293;63009;-58
2022/04/16 01:35:51;;;;;;;0.50;0.50;;;;;;;8.26;65.16;97806.59;29396;229;63005;-64
2022/04/16 01:36:22;;;;;;;0.60;0.60;;;;;;;8.28;65.53;97798.22;29395;252;64009;-64
2022/04/16 01:36:54;;;;;;;0.50;0.50;;;;;;;8.28;65.26;97799.06;29397;219;63005;-63
2022/04/16 01:37:28;;;;;;;0.50;0.50;;;;;;;8.29;65.53;97802.56;29396;215;63009;-57
2022/04/16 01:38:04;;;;;;;0.50;0.50;;;;;;;8.27;64.99;97800.13;29396;216;63004;-57
2022/04/16 01:38:35;;;;;;;0.50;0.50;;;;;;;8.27;65.26;97802.00;29395;202;64009;-58
2022/04/16 01:39:07;;;;;;;0.50;0.50;;;;;;;8.27;65.19;97808.22;29396;204;63004;-59
2022/04/16 01:39:38;;;;;;;0.50;0.50;;;;;;;8.24;65.40;97797.94;29396;199;63009;-57
2022/04/16 01:40:12;;;;;;;0.60;0.60;;;;;;;8.24;65.27;97805.22;29396;253;63004;-57
2022/04/16 01:40:44;;;;;;;0.50;0.50;;;;;;;8.24;65.47;97807.91;29396;199;63008;-58
2022/04/16 01:41:15;;;;;;;0.50;0.50;;;;;;;8.22;65.28;97807.34;29395;246;64005;-58
2022/04/16 01:41:46;;;;;;;0.50;0.50;;;;;;;8.20;65.63;97801.38;29396;275;63009;-57
2022/04/16 01:42:18;;;;;;;0.60;0.60;;;;;;;8.18;65.28;97803.53;29396;235;63005;-58
2022/04/16 01:42:50;;;;;;;0.50;0.50;;;;;;;8.17;65.58;97802.72;29396;206;63009;-57
2022/04/16 01:43:21;;;;;;;0.50;0.50;;;;;;;8.17;65.98;97796.50;29396;210;63005;-58
2022/04/16 01:43:53;;;;;;;0.50;0.50;;;;;;;8.17;65.99;97810.00;29396;200;63027;-57
2022/04/16 01:44:25;;;;;;;0.50;0.50;;;;;;;8.15;65.73;97799.44;29396;252;63005;-58
2022/04/16 01:44:58;;;;;;;0.50;0.50;;;;;;;8.14;65.81;97802.41;29395;241;64009;-58
2022/04/16 01:45:29;;;;;;;0.55;0.55;;;;;;;8.13;65.61;97800.78;29396;250;63004;-59
2022/04/16 01:46:04;;;;;;;0.50;0.50;;;;;;;8.12;65.51;97799.13;29396;275;63009;-64
2022/04/16 01:46:36;;;;;;;0.50;0.50;;;;;;;8.09;65.64;97797.75;29396;240;63004;-57
2022/04/16 01:47:07;;;;;;;0.50;0.50;;;;;;;8.10;65.93;97806.69;29396;215;63009;-58
2022/04/16 01:47:39;;;;;;;0.50;0.50;;;;;;;8.09;65.75;97797.75;29396;288;63004;-57
2022/04/16 01:48:12;;;;;;;0.50;0.50;;;;;;;8.06;65.56;97801.78;29396;275;63008;-59
2022/04/16 01:48:43;;;;;;;0.45;0.45;;;;;;;8.05;65.55;97802.84;29396;269;63005;-57
2022/04/16 01:49:14;;;;;;;0.60;0.60;;;;;;;8.05;65.50;97800.16;29396;254;63009;-58
2022/04/16 01:49:47;;;;;;;0.50;0.50;;;;;;;8.04;65.33;97803.91;29396;222;63005;-64
2022/04/16 01:50:19;;;;;;;0.50;0.50;;;;;;;8.03;65.66;97810.41;29395;299;64009;-57
2022/04/16 01:50:54;;;;;;;0.50;0.50;;;;;;;8.01;65.59;97803.59;29396;247;63005;-58
2022/04/16 01:51:25;;;;;;;0.50;0.50;;;;;;;8.00;66.16;97812.78;29396;210;63009;-63
2022/04/16 01:51:58;;;;;;;1.00;1.00;;;;;;;7.99;65.64;97806.56;29395;237;64005;-58
2022/04/16 01:52:30;;;;;;;0.50;0.50;;;;;;;7.99;66.09;97809.28;29396;255;63009;-59
2022/04/16 01:53:01;;;;;;;0.50;0.50;;;;;;;7.98;65.82;97810.34;29396;212;63004;-65
2022/04/16 01:53:32;;;;;;;0.60;0.60;;;;;;;7.97;66.49;97816.03;29396;233;63009;-57
2022/04/16 01:54:03;;;;;;;0.50;0.50;;;;;;;7.94;66.43;97809.25;29396;290;63004;-58
2022/04/16 01:54:35;;;;;;;0.50;0.50;;;;;;;7.94;66.43;97811.13;29396;202;63009;-58
2022/04/16 01:55:07;;;;;;;0.60;0.60;;;;;;;7.94;66.56;97813.81;29396;225;63004;-65
2022/04/16 01:55:38;;;;;;;0.50;0.50;;;;;;;7.94;66.54;97803.84;29396;231;63008;-58
2022/04/16 01:56:09;;;;;;;0.50;0.50;;;;;;;7.95;66.87;97815.47;29396;212;63005;-57
2022/04/16 01:56:41;;;;;;;0.50;0.50;;;;;;;7.93;66.68;97812.19;29395;229;64009;-57
2022/04/16 01:57:12;;;;;;;0.50;0.50;;;;;;;7.92;66.22;97815.97;29396;222;63005;-59
2022/04/16 01:57:44;;;;;;;0.50;0.50;;;;;;;7.93;66.19;97818.41;29396;220;63009;-58
2022/04/16 01:58:15;;;;;;;0.50;0.50;;;;;;;7.94;66.40;97820.06;29395;202;64005;-58
2022/04/16 01:58:46;;;;;;;0.50;0.50;;;;;;;7.94;66.17;97821.94;29396;234;63009;-57
2022/04/16 01:59:17;;;;;;;0.50;0.50;;;;;;;7.94;66.69;97824.62;29396;261;63005;-57
2022/04/16 01:59:49;;;;;;;0.50;0.50;;;;;;;7.92;66.77;97826.78;29396;197;63009;-64
2022/04/16 02:00:23;;;;;;;0.50;0.50;;;;;;;7.89;66.35;97821.87;29396;202;63004;-57
2022/04/16 02:00:55;;;;;;;0.50;0.50;;;;;;;7.89;66.76;97827.28;29396;202;63009;-59
2022/04/16 02:01:26;;;;;;;0.50;0.50;;;;;;;7.86;66.92;97823.19;29396;243;63004;-58
2022/04/16 02:01:58;;;;;;;0.50;0.50;;;;;;;7.85;67.18;97832.38;29395;213;64009;-65
2022/04/16 02:02:29;;;;;;;0.55;0.55;;;;;;;7.84;67.02;97830.72;29396;314;63004;-58
2022/04/16 02:03:00;;;;;;;0.50;0.50;;;;;;;7.82;67.58;97838.28;29396;234;63025;-58
2022/04/16 02:03:33;;;;;;;0.60;0.60;;;;;;;7.81;67.43;97830.41;29395;232;64004;-63
2022/04/16 02:04:05;;;;;;;0.60;0.60;;;;;;;7.78;67.09;97837.13;29396;208;63009;-63
2022/04/16 02:04:36;;;;;;;0.50;0.50;;;;;;;7.78;67.26;97833.62;29396;233;63005;-66
2022/04/16 02:05:09;;;;;;;0.60;0.60;;;;;;;7.78;67.28;97836.31;29396;286;63009;-58
2022/04/16 02:05:42;;;;;;;0.50;0.50;;;;;;;7.78;67.63;97837.13;29396;205;63005;-58
2022/04/16 02:06:16;;;;;;;0.50;0.50;;;;;;;7.76;67.65;97833.88;29395;197;64009;-57
2022/04/16 02:06:50;;;;;;;0.60;0.60;;;;;;;7.75;67.75;97832.22;29396;223;63014;-63
2022/04/16 02:07:21;;;;;;;0.50;0.50;;;;;;;7.73;67.63;97835.19;29396;210;63009;-57
2022/04/16 02:07:53;;;;;;;0.45;0.45;;;;;;;7.72;67.86;97835.44;29396;263;63004;-57
2022/04/16 02:08:24;;;;;;;0.50;0.50;;;;;;;7.68;68.03;97831.59;29395;274;64009;-58
2022/04/16 02:08:55;;;;;;;0.60;0.60;;;;;;;7.66;68.00;97825.62;29395;202;64004;-57
2022/04/16 02:09:26;;;;;;;0.50;0.50;;;;;;;7.65;67.93;97837.50;29396;254;63009;-59
2022/04/16 02:09:58;;;;;;;0.50;0.50;;;;;;;7.64;67.87;97831.28;29395;269;64004;-64
2022/04/16 02:10:30;;;;;;;0.50;0.50;;;;;;;7.63;68.47;97839.62;29396;206;63009;-61
2022/04/16 02:11:01;;;;;;;0.50;0.50;;;;;;;7.61;68.23;97837.22;29396;232;63005;-58
2022/04/16 02:11:32;;;;;;;0.50;0.50;;;;;;;7.60;68.26;97835.59;29396;237;63009;-58
2022/04/16 02:12:05;;;;;;;0.50;0.50;;;;;;;7.59;68.34;97833.12;29396;214;63005;-57
2022/04/16 02:12:37;;;;;;;0.50;0.50;;;;;;;7.58;67.95;97834.19;29396;250;63009;-58
2022/04/16 02:13:08;;;;;;;0.50;0.50;;;;;;;7.60;68.03;97840.16;29395;241;64005;-58
2022/04/16 02:13:39;;;;;;;0.50;0.50;;;;;;;7.59;68.25;97835.84;29396;211;63009;-57
2022/04/16 02:14:11;;;;;;;0.50;0.50;;;;;;;7.57;68.08;97835.25;29395;272;64005;-58
2022/04/16 02:14:42;;;;;;;0.50;0.50;;;;;;;7.56;68.19;97834.44;29396;211;63009;-63
2022/04/16 02:15:13;;;;;;;0.88;0.88;;;;;;;7.55;68.54;97837.41;29396;255;63004;-57
2022/04/16 02:15:44;;;;;;;0.50;0.50;;;;;;;7.55;68.29;97835.50;29396;274;63009;-57
2022/04/16 02:16:15;;;;;;;0.60;0.60;;;;;;;7.56;68.68;97825.53;29396;218;63004;-57
2022/04/16 02:16:47;;;;;;;0.60;0.60;;;;;;;7.56;68.54;97834.44;29396;240;63016;-63
2022/04/16 02:17:18;;;;;;;0.50;0.50;;;;;;;7.55;68.90;97830.09;29396;255;63004;-58
2022/04/16 02:17:49;;;;;;;0.50;0.50;;;;;;;7.55;68.73;97837.41;29395;287;64008;-59
2022/04/16 02:18:21;;;;;;;0.50;0.50;;;;;;;7.52;68.83;97833.31;29396;222;63005;-57
2022/04/16 02:18:52;;;;;;;0.60;0.60;;;;;;;7.51;68.75;97830.84;29396;204;63009;-57
2022/04/16 02:19:24;;;;;;;0.50;0.50;;;;;;;7.48;69.55;97828.66;29396;260;63005;-58
2022/04/16 02:19:55;;;;;;;0.52;0.52;;;;;;;7.43;70.30;97833.97;29396;227;63009;-57
2022/04/16 02:20:26;;;;;;;0.50;0.50;;;;;;;7.39;69.75;97834.47;29396;228;63017;-60
2022/04/16 02:20:57;;;;;;;0.50;0.50;;;;;;;7.39;69.65;97825.56;29396;267;63009;-57
2022/04/16 02:21:30;;;;;;;0.50;0.50;;;;;;;7.39;69.85;97828.25;29396;203;63005;-59
2022/04/16 02:22:02;;;;;;;0.50;0.50;;;;;;;7.38;69.45;97822.03;29396;230;63009;-65
2022/04/16 02:22:44;;;;;;;0.50;0.50;;;;;;;7.38;69.31;97826.63;29396;208;63004;-57
2022/04/16 02:23:16;;;;;;;0.50;0.50;;;;;;;7.38;69.75;97823.94;29395;236;64009;-58
2022/04/16 02:23:51;;;;;;;0.50;0.50;;;;;;;7.38;69.75;97823.94;29397;226;63004;-57
2022/04/16 02:24:23;;;;;;;0.50;0.50;;;;;;;7.39;69.99;97825.56;29395;297;64009;-57
2022/04/16 02:24:54;;;;;;;0.50;0.50;;;;;;;7.37;69.47;97825.81;29397;210;63004;-59
2022/04/16 02:25:25;;;;;;;0.50;0.50;;;;;;;7.39;69.47;97820.97;29397;221;63008;-58
2022/04/16 02:25:56;;;;;;;0.50;0.50;;;;;;;7.38;69.21;97822.03;29397;210;63005;-58
2022/04/16 02:26:27;;;;;;;0.50;0.50;;;;;;;7.36;69.80;97818.78;29397;224;63009;-64
2022/04/16 02:26:58;;;;;;;0.50;0.50;;;;;;;7.33;70.13;97821.97;29397;262;63009;-57
2022/04/16 02:27:29;;;;;;;0.50;0.50;;;;;;;7.32;69.71;97817.62;29395;224;63009;-65
2022/04/16 02:28:01;;;;;;;0.50;0.50;;;;;;;7.31;70.46;97813.31;29395;212;63005;-57
2022/04/16 02:28:32;;;;;;;0.50;0.50;;;;;;;7.30;70.01;97817.06;29395;346;63009;-58
2022/04/16 02:29:04;;;;;;;0.50;0.50;;;;;;;7.28;70.83;97816.50;29395;219;63005;-64
2022/04/16 02:29:37;;;;;;;0.50;0.50;;;;;;;7.26;70.89;97815.13;29394;268;64009;-58
2022/04/16 02:30:22;;;;;;;0.50;0.50;;;;;;;7.24;70.41;97815.38;29395;207;63004;-65
2022/04/16 02:30:54;;;;;;;0.50;0.50;;;;;;;7.22;70.48;97822.09;29395;208;63009;-58
2022/04/16 02:31:28;;;;;;;0.50;0.50;;;;;;;7.20;70.25;97816.94;29393;210;64004;-58
2022/04/16 02:32:03;;;;;;;0.50;0.50;;;;;;;7.19;70.34;97820.72;29395;215;63009;-58
2022/04/16 02:32:52;;;;;;;0.50;0.50;;;;;;;7.18;70.14;97821.78;29395;201;63004;-64
2022/04/16 02:33:23;;;;;;;0.60;0.60;;;;;;;7.19;70.11;97826.09;29395;234;63009;-65
2022/04/16 02:33:55;;;;;;;0.60;0.60;;;;;;;7.20;70.14;97819.66;29395;279;63008;-65
2022/04/16 02:34:26;;;;;;;0.50;0.50;;;;;;;7.20;70.11;97821.53;29393;202;64027;-64
2022/04/16 02:34:58;;;;;;;0.50;0.50;;;;;;;7.20;69.93;97821.53;29395;231;63005;-58
2022/04/16 02:35:29;;;;;;;0.60;0.60;;;;;;;7.20;69.94;97819.66;29395;282;63009;-65